createdAt,value
2023-05-12T00:00:17.700Z,12.40
2023-05-12T00:03:11.133Z,13.20
2023-05-12T00:05:43.504Z,12.00
2023-05-12T00:08:15.648Z,13.90
2023-05-12T00:10:47.972Z,14.30
2023-05-12T00:13:23.736Z,11.60
2023-05-12T00:15:56.854Z,14.60
2023-05-12T00:18:29.407Z,14.90
2023-05-12T00:21:01.634Z,15.70
2023-05-12T00:23:33.894Z,14.90
2023-05-12T00:26:06.097Z,10.60
2023-05-12T00:28:38.247Z,14.10
2023-05-12T00:31:10.373Z,12.90
2023-05-12T00:33:42.634Z,13.70
2023-05-12T00:36:15.222Z,13.10
2023-05-12T00:38:47.431Z,17.30
2023-05-12T00:41:19.651Z,13.40
2023-05-12T00:43:52.521Z,13.10
2023-05-12T00:46:25.152Z,13.70
2023-05-12T00:48:57.460Z,13.20
2023-05-12T00:51:31.100Z,13.60
2023-05-12T00:54:03.802Z,14.00
2023-05-12T00:56:39.563Z,16.80
2023-05-12T00:59:13.439Z,10.40
2023-05-12T01:01:47.798Z,11.80
2023-05-12T01:04:20.515Z,15.10
2023-05-12T01:06:59.483Z,15.30
2023-05-12T01:09:34.384Z,17.70
2023-05-12T01:12:07.695Z,16.20
2023-05-12T01:14:42.121Z,16.80
2023-05-12T01:17:16.937Z,17.50
2023-05-12T01:19:53.510Z,15.40
2023-05-12T01:22:27.328Z,13.80
2023-05-12T01:25:01.288Z,15.90
2023-05-12T01:27:36.061Z,15.00
2023-05-12T01:30:12.101Z,16.10
2023-05-12T01:32:48.190Z,16.60
2023-05-12T01:35:20.587Z,16.00
2023-05-12T01:38:00.697Z,17.80
2023-05-12T01:40:33.038Z,14.00
2023-05-12T01:43:05.489Z,15.00
2023-05-12T01:45:38.823Z,17.90
2023-05-12T01:48:11.328Z,14.90
2023-05-12T01:50:43.532Z,15.80
2023-05-12T01:53:20.566Z,14.80
2023-05-12T01:55:52.714Z,17.00
2023-05-12T01:58:26.256Z,15.30
2023-05-12T02:00:58.599Z,20.90
2023-05-12T02:03:30.811Z,13.40
2023-05-12T02:06:03.426Z,19.70
2023-05-12T02:08:36.160Z,15.60
2023-05-12T02:11:09.845Z,15.00
2023-05-12T02:13:44.579Z,21.80
2023-05-12T02:16:17.846Z,18.40
2023-05-12T02:18:50.776Z,14.50
2023-05-12T02:21:23.042Z,17.30
2023-05-12T02:23:56.468Z,16.10
2023-05-12T02:26:28.713Z,14.60
2023-05-12T02:29:00.946Z,22.10
2023-05-12T02:31:33.573Z,17.30
2023-05-12T02:34:06.727Z,21.30
2023-05-12T02:36:39.221Z,23.60
2023-05-12T02:39:11.622Z,19.20
2023-05-12T02:41:43.751Z,20.60
2023-05-12T02:44:17.336Z,14.20
2023-05-12T02:46:49.459Z,16.40
2023-05-12T02:49:24.180Z,18.00
2023-05-12T02:51:56.389Z,19.10
2023-05-12T02:54:29.024Z,17.40
2023-05-12T02:57:05.101Z,18.20
2023-05-12T02:59:37.330Z,24.30
2023-05-12T03:02:09.505Z,15.30
2023-05-12T03:04:41.897Z,12.80
2023-05-12T03:07:14.155Z,18.40
2023-05-12T03:09:46.460Z,15.30
2023-05-12T03:12:18.706Z,25.50
2023-05-12T03:14:51.340Z,17.90
2023-05-12T03:17:23.597Z,13.60
2023-05-12T03:19:55.782Z,14.00
2023-05-12T03:22:27.980Z,17.70
2023-05-12T03:25:03.893Z,16.00
2023-05-12T03:27:36.147Z,17.60
2023-05-12T03:30:10.790Z,15.20
2023-05-12T03:32:44.460Z,22.10
2023-05-12T03:35:16.661Z,22.10
2023-05-12T03:37:49.190Z,22.60
2023-05-12T03:40:21.632Z,19.50
2023-05-12T03:42:54.759Z,20.10
2023-05-12T03:45:26.834Z,20.90
2023-05-12T03:47:59.299Z,13.70
2023-05-12T03:50:31.620Z,15.50
2023-05-12T03:53:04.984Z,15.10
2023-05-12T03:55:37.456Z,17.70
2023-05-12T03:58:11.785Z,16.80
2023-05-12T04:00:44.293Z,12.50
2023-05-12T04:03:19.463Z,10.70
2023-05-12T04:05:51.990Z,11.80
2023-05-12T04:08:24.167Z,14.20
2023-05-12T04:10:57.839Z,13.10
2023-05-12T04:13:31.777Z,12.10
2023-05-12T04:16:04.384Z,13.50
2023-05-12T04:18:37.050Z,11.70
2023-05-12T04:21:09.261Z,13.00
2023-05-12T04:26:50.886Z,10.10
2023-05-12T04:29:23.234Z,15.20
2023-05-12T04:31:57.340Z,15.40
2023-05-12T04:34:34.138Z,10.80
2023-05-12T04:37:06.624Z,11.00
2023-05-12T04:39:39.757Z,13.00
2023-05-12T04:42:12.134Z,10.30
2023-05-12T04:44:46.168Z,18.30
2023-05-12T04:47:19.068Z,12.60
2023-05-12T04:49:51.457Z,11.50
2023-05-12T04:52:24.792Z,10.80
2023-05-12T04:54:57.467Z,9.80
2023-05-12T04:57:30.417Z,12.10
2023-05-12T05:00:05.792Z,11.10
2023-05-12T05:02:38.188Z,15.10
2023-05-12T05:05:12.034Z,9.40
2023-05-12T05:07:45.036Z,13.60
2023-05-12T05:10:17.182Z,19.20
2023-05-12T05:12:52.172Z,14.30
2023-05-12T05:15:24.615Z,16.10
2023-05-12T05:17:56.857Z,13.10
2023-05-12T05:20:29.436Z,21.00
2023-05-12T05:23:05.212Z,11.40
2023-05-12T05:25:37.567Z,12.90
2023-05-12T05:28:09.942Z,11.20
2023-05-12T05:30:44.491Z,9.00
2023-05-12T05:33:16.804Z,9.20
2023-05-12T05:35:49.487Z,9.90
2023-05-12T05:38:21.806Z,14.80
2023-05-12T05:40:54.659Z,8.10
2023-05-12T05:43:30.004Z,15.90
2023-05-12T05:46:02.981Z,11.60
2023-05-12T05:48:36.589Z,11.50
2023-05-12T05:51:11.578Z,10.00
2023-05-12T05:53:44.631Z,23.50
2023-05-12T05:56:18.154Z,15.60
2023-05-12T05:58:50.320Z,10.30
2023-05-12T06:01:22.481Z,18.20
2023-05-12T06:03:59.186Z,16.10
2023-05-12T06:06:31.597Z,13.50
2023-05-12T06:09:04.989Z,33.50
2023-05-12T06:11:38.375Z,16.30
2023-05-12T06:14:11.669Z,9.80
2023-05-12T06:16:43.799Z,17.70
2023-05-12T06:19:17.251Z,11.00
2023-05-12T06:21:49.365Z,9.20
2023-05-12T06:24:24.260Z,9.00
2023-05-12T06:26:57.066Z,11.40
2023-05-12T06:29:29.402Z,15.10
2023-05-12T06:32:05.673Z,16.80
2023-05-12T06:34:40.081Z,16.40
2023-05-12T06:37:14.587Z,10.60
2023-05-12T06:39:46.796Z,11.70
2023-05-12T06:42:18.974Z,13.60
2023-05-12T06:44:55.861Z,10.70
2023-05-12T06:47:28.268Z,35.10
2023-05-12T06:50:03.450Z,19.60
2023-05-12T06:52:35.567Z,21.20
2023-05-12T06:59:21.254Z,30.10
2023-05-12T07:01:52.863Z,13.00
2023-05-12T07:04:21.995Z,13.90
2023-05-12T07:06:51.478Z,23.00
2023-05-12T07:09:20.376Z,9.20
2023-05-12T07:11:49.504Z,35.40
2023-05-12T07:14:18.415Z,21.40
2023-05-12T07:16:47.394Z,12.80
2023-05-12T07:19:16.268Z,16.30
2023-05-12T07:21:46.388Z,27.50
2023-05-12T07:24:16.089Z,13.90
2023-05-12T07:26:47.576Z,18.00
2023-05-12T07:29:17.198Z,10.30
2023-05-12T07:31:46.622Z,12.50
2023-05-12T07:34:15.662Z,9.60
2023-05-12T07:36:44.982Z,8.60
2023-05-12T07:39:19.051Z,8.80
2023-05-12T07:41:48.798Z,7.80
2023-05-12T07:44:17.704Z,5.70
2023-05-12T07:46:46.717Z,5.50
2023-05-12T07:49:15.497Z,11.80
2023-05-12T07:51:49.888Z,9.40
2023-05-12T07:54:27.358Z,11.80
2023-05-12T07:56:57.537Z,10.00
2023-05-12T07:59:26.529Z,5.20
2023-05-12T08:01:55.453Z,8.00
2023-05-12T08:04:31.868Z,13.80
2023-05-12T08:07:01.160Z,10.20
2023-05-12T08:09:30.540Z,6.50
2023-05-12T08:12:01.788Z,6.70
2023-05-12T08:14:34.928Z,5.50
2023-05-12T08:17:04.439Z,4.70
2023-05-12T08:19:33.477Z,5.90
2023-05-12T08:22:04.616Z,4.70
2023-05-12T08:24:33.791Z,5.90
2023-05-12T08:27:03.292Z,8.50
2023-05-12T08:29:32.202Z,12.70
2023-05-12T08:32:01.028Z,5.80
2023-05-12T08:34:30.362Z,5.40
2023-05-12T08:36:59.173Z,6.60
2023-05-12T08:39:30.389Z,16.00
2023-05-12T08:42:10.483Z,7.80
2023-05-12T08:44:40.643Z,5.70
2023-05-12T08:47:12.734Z,5.00
2023-05-12T08:49:44.089Z,4.10
2023-05-12T08:52:14.451Z,4.40
2023-05-12T08:54:55.606Z,3.90
2023-05-12T08:57:27.499Z,5.20
2023-05-12T08:59:59.584Z,8.60
2023-05-12T09:02:44.710Z,8.00
2023-05-12T09:05:20.315Z,5.10
2023-05-12T09:07:50.340Z,6.00
2023-05-12T09:13:01.891Z,4.00
2023-05-12T09:15:37.999Z,8.70
2023-05-12T09:18:07.056Z,5.50
2023-05-12T09:20:36.325Z,4.80
2023-05-12T09:23:15.279Z,3.80
2023-05-12T09:25:44.701Z,3.90
2023-05-12T09:28:15.455Z,6.00
2023-05-12T09:30:44.265Z,3.20
2023-05-12T09:33:14.024Z,10.00
2023-05-12T09:35:44.397Z,6.20
2023-05-12T09:38:14.761Z,7.40
2023-05-12T09:40:45.533Z,4.20
2023-05-12T09:43:15.946Z,4.80
2023-05-12T09:45:50.299Z,4.00
2023-05-12T09:48:19.143Z,8.00
2023-05-12T09:50:49.830Z,7.70
2023-05-12T09:53:22.354Z,5.70
2023-05-12T09:55:51.394Z,8.30
2023-05-12T09:58:20.870Z,8.80
2023-05-12T10:01:13.641Z,6.30
2023-05-12T10:03:50.968Z,5.70
2023-05-12T10:06:26.393Z,8.00
2023-05-12T10:09:04.494Z,4.90
2023-05-12T10:11:34.694Z,3.50
2023-05-12T10:14:03.746Z,6.80
2023-05-12T10:16:33.427Z,4.30
2023-05-12T10:19:03.591Z,5.40
2023-05-12T10:21:32.500Z,12.10
2023-05-12T10:24:03.127Z,5.00
2023-05-12T10:26:34.313Z,7.30
2023-05-12T10:29:03.830Z,7.90
2023-05-12T10:31:35.405Z,4.20
2023-05-12T10:34:04.797Z,5.30
2023-05-12T10:36:45.894Z,3.00
2023-05-12T10:39:15.483Z,6.90
2023-05-12T10:41:45.969Z,9.20
2023-05-12T10:44:14.859Z,5.20
2023-05-12T10:46:44.355Z,6.00
2023-05-12T10:49:15.581Z,6.10
2023-05-12T10:51:50.481Z,7.20
2023-05-12T10:54:24.880Z,5.80
2023-05-12T10:57:13.918Z,3.70
2023-05-12T10:59:53.164Z,4.70
2023-05-12T11:02:28.110Z,4.10
2023-05-12T11:05:02.647Z,7.20
2023-05-12T11:07:35.245Z,8.00
2023-05-12T11:13:30.992Z,5.40
2023-05-12T11:15:59.883Z,6.30
2023-05-12T11:18:28.928Z,4.40
2023-05-12T11:20:57.771Z,3.60
2023-05-12T11:23:28.346Z,5.00
2023-05-12T11:25:57.575Z,5.20
2023-05-12T11:28:26.561Z,4.40
2023-05-12T11:30:55.855Z,3.50
2023-05-12T11:33:24.808Z,5.00
2023-05-12T11:35:53.657Z,5.10
2023-05-12T11:38:24.046Z,7.30
2023-05-12T11:40:53.247Z,6.20
2023-05-12T11:43:22.331Z,8.10
2023-05-12T11:45:51.226Z,3.40
2023-05-12T11:48:21.191Z,5.00
2023-05-12T11:50:51.084Z,4.00
2023-05-12T11:53:19.923Z,3.90
2023-05-12T11:55:50.426Z,3.00
2023-05-12T11:58:25.984Z,4.30
2023-05-12T12:00:56.619Z,5.20
2023-05-12T12:03:33.005Z,4.60
2023-05-12T12:06:10.359Z,4.40
2023-05-12T12:08:50.557Z,2.90
2023-05-12T12:11:20.868Z,6.40
2023-05-12T12:16:18.929Z,5.00
2023-05-12T12:18:48.365Z,7.20
2023-05-12T12:21:18.941Z,3.60
2023-05-12T12:23:51.451Z,4.60
2023-05-12T12:26:22.450Z,8.30
2023-05-12T12:28:51.271Z,3.40
2023-05-12T12:31:20.335Z,4.10
2023-05-12T12:33:52.207Z,4.60
2023-05-12T12:36:22.055Z,6.50
2023-05-12T12:38:51.409Z,11.20
2023-05-12T12:41:20.214Z,3.90
2023-05-12T12:43:49.035Z,7.60
2023-05-12T12:46:17.929Z,7.50
2023-05-12T12:48:47.480Z,4.70
2023-05-12T12:51:16.457Z,2.90
2023-05-12T12:53:45.606Z,2.60
2023-05-12T12:56:14.851Z,5.00
2023-05-12T12:58:43.651Z,8.70
2023-05-12T13:01:12.595Z,3.90
2023-05-12T13:03:41.488Z,4.30
2023-05-12T13:06:12.507Z,4.90
2023-05-12T13:08:42.155Z,2.50
2023-05-12T13:11:11.351Z,2.60
2023-05-12T13:13:40.108Z,5.00
2023-05-12T13:16:09.285Z,3.90
2023-05-12T13:18:38.353Z,4.40
2023-05-12T13:21:07.645Z,2.90
2023-05-12T13:23:36.539Z,6.20
2023-05-12T13:26:06.116Z,4.90
2023-05-12T13:28:34.892Z,5.90
2023-05-12T13:31:04.348Z,4.60
2023-05-12T13:33:33.552Z,5.90
2023-05-12T13:36:02.703Z,8.00
2023-05-12T13:38:33.296Z,19.50
2023-05-12T13:41:04.832Z,10.60
2023-05-12T13:43:33.586Z,3.00
2023-05-12T13:46:02.454Z,6.70
2023-05-12T13:48:31.279Z,3.90
2023-05-12T13:51:01.835Z,4.90
2023-05-12T13:53:31.557Z,4.10
2023-05-12T13:56:16.277Z,4.60
2023-05-12T13:58:45.385Z,6.60
2023-05-12T14:01:14.562Z,3.10
2023-05-12T14:03:43.873Z,3.90
2023-05-12T14:06:13.807Z,7.70
2023-05-12T14:08:42.532Z,8.60
2023-05-12T14:11:11.368Z,5.70
2023-05-12T14:13:40.420Z,3.00
2023-05-12T14:16:10.730Z,5.10
2023-05-12T14:18:41.903Z,6.70
2023-05-12T14:21:12.388Z,5.20
2023-05-12T14:23:41.519Z,3.90
2023-05-12T14:26:10.397Z,5.40
2023-05-12T14:28:39.291Z,5.90
2023-05-12T14:31:08.715Z,5.50
2023-05-12T14:33:37.712Z,4.70
2023-05-12T14:36:09.005Z,8.50
2023-05-12T14:38:38.094Z,3.30
2023-05-12T14:41:07.915Z,4.50
2023-05-12T14:43:36.878Z,3.70
2023-05-12T14:46:08.017Z,4.60
2023-05-12T14:48:37.155Z,5.90
2023-05-12T14:51:06.252Z,3.50
2023-05-12T14:53:35.017Z,3.70
2023-05-12T14:56:04.096Z,5.00
2023-05-12T14:58:32.864Z,3.00
2023-05-12T15:01:02.241Z,7.30
2023-05-12T15:03:33.125Z,5.00
2023-05-12T15:06:07.395Z,4.50
2023-05-12T15:08:46.163Z,8.80
2023-05-12T15:11:15.026Z,5.00
2023-05-12T15:13:43.799Z,8.00
2023-05-12T15:16:12.962Z,10.40
2023-05-12T15:18:42.236Z,4.40
2023-05-12T15:21:11.123Z,5.80
2023-05-12T15:23:42.777Z,5.90
2023-05-12T15:28:43.943Z,9.60
2023-05-12T15:31:12.868Z,5.90
2023-05-12T15:33:42.442Z,5.40
2023-05-12T15:36:12.920Z,7.90
2023-05-12T15:38:42.153Z,3.40
2023-05-12T15:41:11.093Z,9.20
2023-05-12T15:43:40.507Z,9.20
2023-05-12T15:46:12.816Z,4.70
2023-05-12T15:48:42.057Z,7.20
2023-05-12T15:51:10.920Z,7.40
2023-05-12T15:53:39.934Z,11.00
2023-05-12T15:56:09.423Z,5.70
2023-05-12T15:58:39.425Z,8.70
2023-05-12T16:01:08.253Z,5.40
2023-05-12T16:03:37.310Z,12.20
2023-05-12T16:06:10.890Z,7.80
2023-05-12T16:08:39.843Z,7.70
2023-05-12T16:11:08.810Z,6.90
2023-05-12T16:13:37.721Z,9.50
2023-05-12T16:16:08.265Z,4.40
2023-05-12T16:18:37.899Z,5.50
2023-05-12T16:21:09.032Z,5.90
2023-05-12T16:23:37.899Z,7.50
2023-05-12T16:26:06.888Z,6.20
2023-05-12T16:28:35.814Z,5.40
2023-05-12T16:31:05.077Z,4.00
2023-05-12T16:33:33.994Z,4.10
2023-05-12T16:36:03.026Z,7.80
2023-05-12T16:38:34.652Z,4.00
2023-05-12T16:41:05.351Z,8.80
2023-05-12T16:43:34.314Z,7.40
2023-05-12T16:46:04.192Z,6.00
2023-05-12T16:48:36.273Z,8.30
2023-05-12T16:51:08.282Z,7.10
2023-05-12T16:53:37.274Z,7.40
2023-05-12T16:56:07.180Z,4.50
2023-05-12T16:58:36.160Z,9.70
2023-05-12T17:01:10.228Z,12.80
2023-05-12T17:03:39.563Z,7.20
2023-05-12T17:06:09.034Z,6.20
2023-05-12T17:08:37.929Z,8.70
2023-05-12T17:11:10.612Z,8.00
2023-05-12T17:13:42.528Z,8.80
2023-05-12T17:16:11.735Z,8.60
2023-05-12T17:21:13.426Z,6.40
2023-05-12T17:23:42.360Z,6.10
2023-05-12T17:26:11.313Z,7.20
2023-05-12T17:28:40.445Z,17.80
2023-05-12T17:31:09.920Z,9.40
2023-05-12T17:33:38.769Z,9.40
2023-05-12T17:36:12.943Z,15.60
2023-05-12T17:38:42.875Z,11.30
2023-05-12T17:41:17.414Z,11.40
2023-05-12T17:43:46.342Z,10.20
2023-05-12T17:46:18.042Z,8.70
2023-05-12T17:48:47.360Z,7.00
2023-05-12T17:51:18.126Z,10.70
2023-05-12T17:53:46.923Z,7.40
2023-05-12T17:56:15.807Z,6.30
2023-05-12T17:58:44.597Z,6.00
2023-05-12T18:01:13.528Z,7.00
2023-05-12T18:03:42.851Z,8.70
2023-05-12T18:06:12.633Z,9.20
2023-05-12T18:08:41.631Z,12.70
2023-05-12T18:11:10.766Z,8.50
2023-05-12T18:13:39.640Z,14.40
2023-05-12T18:16:18.205Z,9.50
2023-05-12T18:18:56.889Z,7.20
2023-05-12T18:21:26.059Z,9.60
2023-05-12T18:23:55.138Z,7.60
2023-05-12T18:26:25.865Z,10.70
2023-05-12T18:28:54.847Z,10.40
2023-05-12T18:31:23.796Z,12.80
2023-05-12T18:33:53.080Z,9.00
2023-05-12T18:36:22.070Z,15.70
2023-05-12T18:38:51.108Z,16.90
2023-05-12T18:41:27.231Z,15.20
2023-05-12T18:43:56.388Z,9.40
2023-05-12T18:46:25.305Z,11.20
2023-05-12T18:48:54.622Z,19.80
2023-05-12T18:51:23.540Z,19.70
2023-05-12T18:53:52.734Z,20.90
2023-05-12T18:56:21.650Z,13.70
2023-05-12T18:58:50.700Z,19.20
2023-05-12T19:01:19.641Z,25.40
2023-05-12T19:03:48.649Z,21.00
2023-05-12T19:06:17.747Z,18.80
2023-05-12T19:08:46.715Z,20.60
2023-05-12T19:11:15.801Z,16.50
2023-05-12T19:13:46.655Z,23.60
2023-05-12T19:16:16.352Z,18.60
2023-05-12T19:18:45.690Z,19.00
2023-05-12T19:21:14.889Z,22.10
2023-05-12T19:23:44.085Z,22.80
2023-05-12T19:26:13.001Z,22.80
2023-05-12T19:28:42.079Z,26.00
2023-05-12T19:31:11.840Z,28.80
2023-05-12T19:33:41.197Z,28.90
2023-05-12T19:36:11.220Z,28.90
2023-05-12T19:38:43.032Z,29.80
2023-05-12T19:41:12.118Z,25.00
2023-05-12T19:43:41.041Z,20.20
2023-05-12T19:46:10.004Z,17.90
2023-05-12T19:48:39.004Z,17.00
2023-05-12T19:51:08.631Z,18.00
2023-05-12T19:53:37.508Z,17.20
2023-05-12T19:56:06.530Z,17.20
2023-05-12T19:58:35.556Z,10.90
2023-05-12T20:01:04.462Z,15.60
2023-05-12T20:03:33.501Z,14.60
2023-05-12T20:06:02.462Z,14.60
2023-05-12T20:08:31.378Z,18.60
2023-05-12T20:11:00.329Z,14.10
2023-05-12T20:13:29.199Z,15.80
2023-05-12T20:15:59.151Z,14.30
2023-05-12T20:18:28.569Z,11.20
2023-05-12T20:20:58.170Z,11.50
2023-05-12T20:23:27.174Z,9.30
2023-05-12T20:25:59.368Z,12.90
2023-05-12T20:28:31.153Z,12.70
2023-05-12T20:31:00.192Z,13.00
2023-05-12T20:33:29.543Z,10.40
2023-05-12T20:35:58.528Z,10.30
2023-05-12T20:38:27.534Z,15.10
2023-05-12T20:40:56.538Z,10.20
2023-05-12T20:43:25.429Z,13.80
2023-05-12T20:45:54.417Z,11.20
2023-05-12T20:48:23.767Z,13.00
2023-05-12T20:50:52.919Z,11.60
2023-05-12T20:53:21.843Z,11.30
2023-05-12T20:55:50.830Z,8.70
2023-05-12T20:58:19.711Z,10.20
2023-05-12T21:00:49.029Z,12.20
2023-05-12T21:03:17.974Z,11.80
2023-05-12T21:05:49.012Z,10.20
2023-05-12T21:08:20.369Z,11.00
2023-05-12T21:10:49.238Z,9.80
2023-05-12T21:13:18.468Z,8.80
2023-05-12T21:15:47.546Z,11.80
2023-05-12T21:18:16.385Z,9.40
2023-05-12T21:20:48.657Z,8.20
2023-05-12T21:23:18.064Z,9.20
2023-05-12T21:25:48.482Z,8.30
2023-05-12T21:30:48.174Z,9.70
2023-05-12T21:33:17.538Z,14.20
2023-05-12T21:35:49.271Z,8.20
2023-05-12T21:38:18.988Z,11.70
2023-05-12T21:40:51.309Z,10.40
2023-05-12T21:43:20.263Z,12.30
2023-05-12T21:45:49.189Z,13.90
2023-05-12T21:48:18.048Z,11.30
2023-05-12T21:50:58.726Z,10.90
2023-05-12T21:53:27.658Z,9.40
2023-05-12T21:55:56.690Z,13.10
2023-05-12T21:58:25.592Z,11.20
2023-05-12T22:00:54.782Z,9.60
2023-05-12T22:03:25.212Z,9.80
2023-05-12T22:08:22.152Z,10.40
2023-05-12T22:10:51.287Z,21.60
2023-05-12T22:13:20.257Z,20.40
2023-05-12T22:15:49.581Z,21.30
2023-05-12T22:18:19.470Z,10.30
2023-05-12T22:20:48.711Z,10.10
2023-05-12T22:23:17.586Z,14.60
2023-05-12T22:25:46.615Z,11.60
2023-05-12T22:28:15.877Z,15.80
2023-05-12T22:31:01.846Z,15.80
2023-05-12T22:33:33.813Z,21.50
2023-05-12T22:36:03.264Z,16.40
2023-05-12T22:38:32.243Z,14.30
2023-05-12T22:41:01.678Z,12.40
2023-05-12T22:43:30.687Z,13.00
2023-05-12T22:45:59.681Z,11.40
2023-05-12T22:48:28.638Z,17.30
2023-05-12T22:51:00.782Z,15.10
2023-05-12T22:53:29.804Z,10.90
2023-05-12T22:55:58.795Z,12.40
2023-05-12T22:58:27.725Z,13.20
2023-05-12T23:00:56.899Z,12.50
2023-05-12T23:03:26.258Z,13.70
2023-05-12T23:05:55.552Z,13.10
2023-05-12T23:08:24.794Z,12.90
2023-05-12T23:10:56.286Z,13.30
2023-05-12T23:13:25.708Z,17.70
2023-05-12T23:15:57.983Z,14.70
2023-05-12T23:18:31.496Z,17.00
2023-05-12T23:21:03.206Z,13.90
2023-05-12T23:23:32.601Z,13.10
2023-05-12T23:26:01.916Z,13.90
2023-05-12T23:28:30.924Z,13.60
2023-05-12T23:30:59.883Z,10.70
2023-05-12T23:33:31.876Z,15.60
2023-05-12T23:36:01.391Z,15.50
2023-05-12T23:38:30.630Z,12.70
2023-05-12T23:40:59.787Z,11.90
2023-05-12T23:43:28.690Z,12.90
2023-05-12T23:45:58.163Z,10.10
2023-05-12T23:48:28.222Z,13.50
2023-05-12T23:50:57.260Z,14.50
2023-05-12T23:53:26.245Z,13.50
2023-05-12T23:55:55.144Z,16.40
2023-05-12T23:58:24.004Z,12.10
